Friday, January 19, 2018, 10:32 AM EST
Back to Local

KACK, Nantucket Memorial Airport

Location: Nantucket, MA, United States Lat: 41.25
Local Time: 10:32 AM EST (15:32 GMT) Lon: -70.067
Time Zone: US/Eastern Elev: 49 ft

Show me the last for .
Show Decoded

2018-01-19 09:53 METAR KACK 191453Z 28010KT 10SM CLR M02/M07 A3001 RMK AO2 SLP163 T10221067 53011
                 =
2018-01-19 08:53 METAR KACK 191353Z 29013KT 10SM CLR M02/M06 A3001 RMK AO2 SLP162 T10221061 =
2018-01-19 07:53 METAR KACK 191253Z 27005KT 10SM CLR M04/M06 A2998 RMK AO2 SLP153 T10391061 =
2018-01-19 06:53 METAR KACK 191153Z 29008KT 10SM CLR M04/M07 A2998 RMK AO2 SLP152 T10391067 11022
                 21039 52014 =
2018-01-19 05:53 METAR KACK 191053Z 30011KT 10SM CLR M04/M07 A2998 RMK AO2 SLP150 T10391067 =
2018-01-19 04:53 METAR KACK 190953Z AUTO 31010KT 10SM CLR M03/M07 A2994 RMK AO2 SLP140 T10331067
                 TSNO =
2018-01-19 03:53 METAR KACK 190853Z AUTO 31011KT 10SM CLR M04/M07 A2994 RMK AO2 SLP138 T10391067
                 52005 TSNO =
2018-01-19 02:53 METAR KACK 190753Z AUTO 31011KT 10SM CLR M03/M07 A2994 RMK AO2 SLP138 T10331067
                 TSNO =
2018-01-19 01:53 METAR KACK 190653Z AUTO 30008KT 10SM CLR M03/M07 A2992 RMK AO2 SLP132 T10331067
                 TSNO =
2018-01-19 00:53 METAR KACK 190553Z AUTO 31012KT 10SM OVC031 M02/M06 A2992 RMK AO2 SLP132
                 T10221061 11017 21028 56001 TSNO =
2018-01-18 23:53 METAR KACK 190453Z AUTO 31009KT 10SM BKN031 M02/M06 A2992 RMK AO2 SLP133
                 T10221061 400061022 TSNO =
2018-01-18 22:53 METAR KACK 190353Z AUTO 32013KT 10SM OVC031 M02/M06 A2992 RMK AO2 SLP132
                 T10171061 TSNO =
2018-01-18 21:53 METAR KACK 190253Z AUTO 31013KT 10SM OVC031 M02/M06 A2993 RMK AO2 SLP134
                 T10171061 53016 TSNO =
2018-01-18 21:23 METAR KACK 190223Z AUTO 31015KT 10SM OVC030 M02/M07 A2992 RMK AO2 T10171067 TSNO
                 =
2018-01-18 20:53 METAR KACK 190153Z 32015G21KT 10SM OVC028 M02/M06 A2990 RMK AO2 SLP126 T10171061
                 =
2018-01-18 20:39 METAR KACK 190139Z 32012KT 10SM OVC027 M02/M06 A2990 RMK AO2 T10171061 =
2018-01-18 20:00 METAR KACK 190100Z 32011KT 10SM BKN027 M02/M06 A2990 RMK AO2 T10171061 =
2018-01-18 19:53 METAR KACK 190053Z 33015G21KT 10SM BKN035 M02/M06 A2990 RMK AO2 SLP124 T10171061
                 =
2018-01-18 18:53 METAR KACK 182353Z 34013G19KT 10SM CLR M02/M06 A2988 RMK AO2 SLP118 T10171056
                 10006 21017 53025 =
2018-01-18 17:53 METAR KACK 182253Z 34013KT 10SM CLR M02/M05 A2986 RMK AO2 SLP112 T10171050 =
2018-01-18 16:53 METAR KACK 182153Z 36011KT 10SM CLR M02/M06 A2981 RMK AO2 SLP095 T10171056 =
2018-01-18 15:53 METAR KACK 182053Z 35012KT 10SM CLR M01/M06 A2981 RMK AO2 SLP093 T10061056 58009
                 =
2018-01-18 14:53 METAR KACK 181953Z 36013KT 10SM CLR 00/M04 A2982 RMK AO2 SLP098 T00001044 =
2018-01-18 13:53 METAR KACK 181853Z 34012KT 10SM CLR 01/M03 A2983 RMK AO2 SLP101 T00061033 =
2018-01-18 12:53 METAR KACK 181753Z 35015KT 10SM R24/4500VP6000FT BKN012 01/M02 A2983 RMK AO2
                 PRESFR SLP102 T00061022 10006 21006 58031 =
2018-01-18 11:53 METAR KACK 181653Z 33013KT 10SM OVC010 00/M02 A2986 RMK AO2 PRESFR SLP110
                 T00001022 =
2018-01-18 10:53 METAR KACK 181553Z 34010KT 10SM OVC011 00/M02 A2991 RMK AO2 SLP129 T00001022 =

Support USWX by starting your Amazon purchase here.